sensor_id;sensor_type;location;lat;lon;timestamp;P1;durP1;ratioP1;P2;durP2;ratioP2
8895;SDS011;4484;48.928;10.066;2023-03-26T00:01:14;2.87;;;0.90;;
8895;SDS011;4484;48.928;10.066;2023-03-26T00:03:42;5.70;;;0.90;;
8895;SDS011;4484;48.928;10.066;2023-03-26T00:06:22;2.60;;;1.07;;
8895;SDS011;4484;48.928;10.066;2023-03-26T00:08:55;2.37;;;1.00;;
8895;SDS011;4484;48.928;10.066;2023-03-26T00:11:23;4.00;;;0.80;;
8895;SDS011;4484;48.928;10.066;2023-03-26T00:13:51;1.30;;;0.60;;
8895;SDS011;4484;48.928;10.066;2023-03-26T00:16:22;3.27;;;0.80;;
8895;SDS011;4484;48.928;10.066;2023-03-26T00:18:51;2.40;;;0.80;;
8895;SDS011;4484;48.928;10.066;2023-03-26T00:21:20;2.30;;;0.53;;
8895;SDS011;4484;48.928;10.066;2023-03-26T00:23:54;1.73;;;0.63;;
8895;SDS011;4484;48.928;10.066;2023-03-26T00:26:32;2.27;;;0.80;;
8895;SDS011;4484;48.928;10.066;2023-03-26T00:29:00;0.40;;;0.40;;
8895;SDS011;4484;48.928;10.066;2023-03-26T00:31:29;1.27;;;0.50;;
8895;SDS011;4484;48.928;10.066;2023-03-26T00:33:56;1.80;;;0.70;;
8895;SDS011;4484;48.928;10.066;2023-03-26T00:36:25;3.03;;;0.70;;
8895;SDS011;4484;48.928;10.066;2023-03-26T00:38:52;0.90;;;0.70;;
8895;SDS011;4484;48.928;10.066;2023-03-26T00:41:20;3.27;;;0.80;;
8895;SDS011;4484;48.928;10.066;2023-03-26T00:43:52;1.53;;;0.67;;
8895;SDS011;4484;48.928;10.066;2023-03-26T00:46:22;1.73;;;0.50;;
8895;SDS011;4484;48.928;10.066;2023-03-26T00:48:50;3.37;;;0.73;;
8895;SDS011;4484;48.928;10.066;2023-03-26T00:51:17;2.90;;;0.70;;
8895;SDS011;4484;48.928;10.066;2023-03-26T00:53:46;2.97;;;0.70;;
8895;SDS011;4484;48.928;10.066;2023-03-26T00:56:14;2.43;;;0.80;;
8895;SDS011;4484;48.928;10.066;2023-03-26T00:58:42;3.27;;;0.83;;
8895;SDS011;4484;48.928;10.066;2023-03-26T01:01:13;2.53;;;0.87;;
8895;SDS011;4484;48.928;10.066;2023-03-26T01:03:42;1.40;;;0.50;;
8895;SDS011;4484;48.928;10.066;2023-03-26T01:06:30;2.67;;;0.77;;
8895;SDS011;4484;48.928;10.066;2023-03-26T01:09:02;2.80;;;0.70;;
8895;SDS011;4484;48.928;10.066;2023-03-26T01:11:41;3.80;;;0.80;;
8895;SDS011;4484;48.928;10.066;2023-03-26T01:16:42;1.77;;;0.87;;
8895;SDS011;4484;48.928;10.066;2023-03-26T01:22:15;3.60;;;1.10;;
8895;SDS011;4484;48.928;10.066;2023-03-26T01:24:43;1.40;;;0.80;;
8895;SDS011;4484;48.928;10.066;2023-03-26T01:33:04;2.83;;;0.80;;
8895;SDS011;4484;48.928;10.066;2023-03-26T01:35:44;3.07;;;0.90;;
8895;SDS011;4484;48.928;10.066;2023-03-26T01:41:16;3.60;;;1.20;;
8895;SDS011;4484;48.928;10.066;2023-03-26T01:46:31;3.67;;;1.10;;
8895;SDS011;4484;48.928;10.066;2023-03-26T01:49:02;2.77;;;1.00;;
8895;SDS011;4484;48.928;10.066;2023-03-26T01:51:32;1.83;;;0.73;;
8895;SDS011;4484;48.928;10.066;2023-03-26T01:54:01;2.20;;;1.20;;
8895;SDS011;4484;48.928;10.066;2023-03-26T01:56:35;2.77;;;1.23;;
8895;SDS011;4484;48.928;10.066;2023-03-26T01:59:34;2.23;;;0.70;;
8895;SDS011;4484;48.928;10.066;2023-03-26T02:02:25;2.90;;;1.00;;
8895;SDS011;4484;48.928;10.066;2023-03-26T02:05:08;2.90;;;1.17;;
8895;SDS011;4484;48.928;10.066;2023-03-26T02:07:43;2.20;;;0.80;;
8895;SDS011;4484;48.928;10.066;2023-03-26T02:10:25;1.30;;;0.80;;
8895;SDS011;4484;48.928;10.066;2023-03-26T02:12:56;2.80;;;0.97;;
8895;SDS011;4484;48.928;10.066;2023-03-26T02:15:24;4.00;;;1.60;;
8895;SDS011;4484;48.928;10.066;2023-03-26T02:17:51;3.13;;;1.10;;
8895;SDS011;4484;48.928;10.066;2023-03-26T02:20:19;5.17;;;1.73;;
8895;SDS011;4484;48.928;10.066;2023-03-26T02:22:46;4.07;;;1.43;;
8895;SDS011;4484;48.928;10.066;2023-03-26T02:25:17;4.30;;;1.90;;
8895;SDS011;4484;48.928;10.066;2023-03-26T02:27:49;3.23;;;1.20;;
8895;SDS011;4484;48.928;10.066;2023-03-26T02:30:21;2.93;;;1.43;;
8895;SDS011;4484;48.928;10.066;2023-03-26T02:32:57;5.50;;;1.57;;
8895;SDS011;4484;48.928;10.066;2023-03-26T02:35:32;2.97;;;1.10;;
8895;SDS011;4484;48.928;10.066;2023-03-26T02:38:00;3.83;;;1.17;;
8895;SDS011;4484;48.928;10.066;2023-03-26T02:40:27;0.93;;;0.73;;
8895;SDS011;4484;48.928;10.066;2023-03-26T02:42:55;2.97;;;1.03;;
8895;SDS011;4484;48.928;10.066;2023-03-26T02:45:22;2.53;;;0.80;;
8895;SDS011;4484;48.928;10.066;2023-03-26T02:48:21;5.37;;;1.63;;
8895;SDS011;4484;48.928;10.066;2023-03-26T02:50:57;1.40;;;0.80;;
8895;SDS011;4484;48.928;10.066;2023-03-26T02:53:24;2.30;;;0.90;;
8895;SDS011;4484;48.928;10.066;2023-03-26T02:56:12;1.60;;;0.97;;
8895;SDS011;4484;48.928;10.066;2023-03-26T02:58:48;3.60;;;1.13;;
8895;SDS011;4484;48.928;10.066;2023-03-26T03:01:15;4.17;;;1.17;;
8895;SDS011;4484;48.928;10.066;2023-03-26T03:03:50;2.03;;;1.20;;
8895;SDS011;4484;48.928;10.066;2023-03-26T03:06:33;5.57;;;1.73;;
8895;SDS011;4484;48.928;10.066;2023-03-26T03:09:00;3.43;;;1.67;;
8895;SDS011;4484;48.928;10.066;2023-03-26T03:11:34;5.57;;;2.27;;
8895;SDS011;4484;48.928;10.066;2023-03-26T03:14:01;4.10;;;2.00;;
8895;SDS011;4484;48.928;10.066;2023-03-26T03:16:29;7.13;;;2.07;;
8895;SDS011;4484;48.928;10.066;2023-03-26T03:19:01;6.10;;;2.17;;
8895;SDS011;4484;48.928;10.066;2023-03-26T03:21:34;3.87;;;1.90;;
8895;SDS011;4484;48.928;10.066;2023-03-26T03:24:01;3.37;;;1.87;;
8895;SDS011;4484;48.928;10.066;2023-03-26T03:26:32;7.07;;;2.13;;
8895;SDS011;4484;48.928;10.066;2023-03-26T03:29:14;8.20;;;2.67;;
8895;SDS011;4484;48.928;10.066;2023-03-26T03:31:41;10.30;;;3.50;;
8895;SDS011;4484;48.928;10.066;2023-03-26T03:34:19;7.93;;;3.13;;
8895;SDS011;4484;48.928;10.066;2023-03-26T03:36:49;8.77;;;3.17;;
8895;SDS011;4484;48.928;10.066;2023-03-26T03:39:42;4.93;;;2.10;;
8895;SDS011;4484;48.928;10.066;2023-03-26T03:42:11;3.50;;;1.40;;
8895;SDS011;4484;48.928;10.066;2023-03-26T03:44:38;4.73;;;1.60;;
8895;SDS011;4484;48.928;10.066;2023-03-26T03:47:15;2.00;;;0.90;;
8895;SDS011;4484;48.928;10.066;2023-03-26T03:49:42;2.57;;;1.10;;
8895;SDS011;4484;48.928;10.066;2023-03-26T03:52:09;4.03;;;1.00;;
8895;SDS011;4484;48.928;10.066;2023-03-26T03:54:39;1.67;;;0.97;;
8895;SDS011;4484;48.928;10.066;2023-03-26T03:57:27;4.80;;;1.30;;
8895;SDS011;4484;48.928;10.066;2023-03-26T04:00:00;5.53;;;1.40;;
8895;SDS011;4484;48.928;10.066;2023-03-26T04:02:40;3.80;;;1.20;;
8895;SDS011;4484;48.928;10.066;2023-03-26T04:05:08;3.70;;;1.10;;
8895;SDS011;4484;48.928;10.066;2023-03-26T04:07:42;2.30;;;1.00;;
8895;SDS011;4484;48.928;10.066;2023-03-26T04:10:34;3.77;;;1.27;;
8895;SDS011;4484;48.928;10.066;2023-03-26T04:13:04;2.73;;;0.87;;
8895;SDS011;4484;48.928;10.066;2023-03-26T04:15:46;3.17;;;1.13;;
8895;SDS011;4484;48.928;10.066;2023-03-26T04:18:13;2.40;;;1.20;;
8895;SDS011;4484;48.928;10.066;2023-03-26T04:20:43;3.73;;;1.00;;
8895;SDS011;4484;48.928;10.066;2023-03-26T04:23:17;2.10;;;1.03;;
8895;SDS011;4484;48.928;10.066;2023-03-26T04:25:51;5.30;;;1.13;;
8895;SDS011;4484;48.928;10.066;2023-03-26T04:28:28;2.00;;;1.10;;
8895;SDS011;4484;48.928;10.066;2023-03-26T04:31:15;4.13;;;1.03;;
8895;SDS011;4484;48.928;10.066;2023-03-26T04:33:45;1.67;;;1.20;;
8895;SDS011;4484;48.928;10.066;2023-03-26T04:36:15;3.23;;;0.80;;
8895;SDS011;4484;48.928;10.066;2023-03-26T04:38:45;3.73;;;1.10;;
8895;SDS011;4484;48.928;10.066;2023-03-26T04:41:21;4.07;;;1.13;;
8895;SDS011;4484;48.928;10.066;2023-03-26T04:43:59;3.13;;;1.13;;
8895;SDS011;4484;48.928;10.066;2023-03-26T04:46:37;5.13;;;1.10;;
8895;SDS011;4484;48.928;10.066;2023-03-26T04:49:15;1.57;;;0.80;;
8895;SDS011;4484;48.928;10.066;2023-03-26T04:51:43;1.53;;;0.93;;
8895;SDS011;4484;48.928;10.066;2023-03-26T04:54:31;2.17;;;0.80;;
8895;SDS011;4484;48.928;10.066;2023-03-26T04:57:03;1.70;;;0.67;;
8895;SDS011;4484;48.928;10.066;2023-03-26T04:59:44;1.47;;;0.80;;
8895;SDS011;4484;48.928;10.066;2023-03-26T05:02:12;0.93;;;0.70;;
8895;SDS011;4484;48.928;10.066;2023-03-26T05:04:51;0.97;;;0.67;;
8895;SDS011;4484;48.928;10.066;2023-03-26T05:09:04;1.33;;;1.07;;
8895;SDS011;4484;48.928;10.066;2023-03-26T05:11:51;0.90;;;0.57;;
8895;SDS011;4484;48.928;10.066;2023-03-26T05:14:19;3.13;;;1.83;;
8895;SDS011;4484;48.928;10.066;2023-03-26T05:16:47;2.97;;;1.67;;
8895;SDS011;4484;48.928;10.066;2023-03-26T05:19:15;3.67;;;1.53;;
8895;SDS011;4484;48.928;10.066;2023-03-26T05:21:42;3.50;;;1.50;;
8895;SDS011;4484;48.928;10.066;2023-03-26T05:24:09;3.07;;;1.40;;
8895;SDS011;4484;48.928;10.066;2023-03-26T05:26:36;5.80;;;1.50;;
8895;SDS011;4484;48.928;10.066;2023-03-26T05:29:03;2.67;;;1.27;;
8895;SDS011;4484;48.928;10.066;2023-03-26T05:31:34;4.07;;;1.30;;
8895;SDS011;4484;48.928;10.066;2023-03-26T05:34:02;1.40;;;0.90;;
8895;SDS011;4484;48.928;10.066;2023-03-26T05:36:29;3.47;;;1.57;;
8895;SDS011;4484;48.928;10.066;2023-03-26T05:39:14;3.67;;;2.30;;
8895;SDS011;4484;48.928;10.066;2023-03-26T05:42:05;6.83;;;2.20;;
8895;SDS011;4484;48.928;10.066;2023-03-26T05:44:53;9.47;;;3.27;;
8895;SDS011;4484;48.928;10.066;2023-03-26T05:47:25;7.03;;;2.67;;
8895;SDS011;4484;48.928;10.066;2023-03-26T05:49:52;8.87;;;2.87;;
8895;SDS011;4484;48.928;10.066;2023-03-26T05:52:19;4.47;;;1.90;;
8895;SDS011;4484;48.928;10.066;2023-03-26T05:55:15;4.47;;;1.20;;
8895;SDS011;4484;48.928;10.066;2023-03-26T05:58:02;5.03;;;1.27;;
8895;SDS011;4484;48.928;10.066;2023-03-26T06:00:47;2.57;;;1.17;;
8895;SDS011;4484;48.928;10.066;2023-03-26T06:03:25;3.43;;;1.27;;
8895;SDS011;4484;48.928;10.066;2023-03-26T06:06:10;6.93;;;1.30;;
8895;SDS011;4484;48.928;10.066;2023-03-26T06:08:53;5.50;;;1.30;;
8895;SDS011;4484;48.928;10.066;2023-03-26T06:11:29;9.60;;;1.60;;
8895;SDS011;4484;48.928;10.066;2023-03-26T06:13:58;8.20;;;1.93;;
8895;SDS011;4484;48.928;10.066;2023-03-26T06:16:26;6.43;;;2.27;;
8895;SDS011;4484;48.928;10.066;2023-03-26T06:19:14;5.97;;;1.57;;
8895;SDS011;4484;48.928;10.066;2023-03-26T06:21:56;6.87;;;2.10;;
8895;SDS011;4484;48.928;10.066;2023-03-26T06:24:28;9.10;;;1.60;;
8895;SDS011;4484;48.928;10.066;2023-03-26T06:27:08;7.63;;;1.33;;
8895;SDS011;4484;48.928;10.066;2023-03-26T06:30:01;3.27;;;1.37;;
8895;SDS011;4484;48.928;10.066;2023-03-26T06:32:51;5.50;;;1.47;;
8895;SDS011;4484;48.928;10.066;2023-03-26T06:35:23;3.33;;;1.20;;
8895;SDS011;4484;48.928;10.066;2023-03-26T06:37:50;6.83;;;1.47;;
8895;SDS011;4484;48.928;10.066;2023-03-26T06:40:17;3.37;;;1.03;;
8895;SDS011;4484;48.928;10.066;2023-03-26T06:43:02;7.97;;;1.40;;
8895;SDS011;4484;48.928;10.066;2023-03-26T06:45:52;2.73;;;1.20;;
8895;SDS011;4484;48.928;10.066;2023-03-26T06:48:34;5.67;;;2.13;;
8895;SDS011;4484;48.928;10.066;2023-03-26T06:51:20;10.17;;;3.17;;
8895;SDS011;4484;48.928;10.066;2023-03-26T06:54:15;8.33;;;2.60;;
8895;SDS011;4484;48.928;10.066;2023-03-26T06:56:54;3.30;;;1.57;;
8895;SDS011;4484;48.928;10.066;2023-03-26T06:59:22;7.37;;;1.37;;
8895;SDS011;4484;48.928;10.066;2023-03-26T07:02:08;4.53;;;1.80;;
8895;SDS011;4484;48.928;10.066;2023-03-26T07:04:55;7.47;;;1.60;;
8895;SDS011;4484;48.928;10.066;2023-03-26T07:07:40;7.90;;;2.50;;
8895;SDS011;4484;48.928;10.066;2023-03-26T07:10:31;6.80;;;2.13;;
8895;SDS011;4484;48.928;10.066;2023-03-26T07:13:07;5.47;;;1.57;;
8895;SDS011;4484;48.928;10.066;2023-03-26T07:15:48;6.27;;;1.70;;
8895;SDS011;4484;48.928;10.066;2023-03-26T07:18:31;3.53;;;1.30;;
8895;SDS011;4484;48.928;10.066;2023-03-26T07:21:00;5.20;;;1.53;;
8895;SDS011;4484;48.928;10.066;2023-03-26T07:23:30;6.07;;;1.40;;
8895;SDS011;4484;48.928;10.066;2023-03-26T07:29:17;7.67;;;1.60;;
8895;SDS011;4484;48.928;10.066;2023-03-26T07:41:39;4.00;;;1.60;;
8895;SDS011;4484;48.928;10.066;2023-03-26T07:47:32;2.17;;;1.20;;
8895;SDS011;4484;48.928;10.066;2023-03-26T07:50:23;6.00;;;1.70;;
8895;SDS011;4484;48.928;10.066;2023-03-26T07:53:02;4.67;;;1.40;;
8895;SDS011;4484;48.928;10.066;2023-03-26T08:07:49;6.93;;;1.23;;
8895;SDS011;4484;48.928;10.066;2023-03-26T08:16:23;5.80;;;1.50;;
8895;SDS011;4484;48.928;10.066;2023-03-26T08:19:04;6.10;;;1.93;;
8895;SDS011;4484;48.928;10.066;2023-03-26T08:21:51;6.33;;;1.13;;
8895;SDS011;4484;48.928;10.066;2023-03-26T08:27:08;5.07;;;1.33;;
8895;SDS011;4484;48.928;10.066;2023-03-26T08:32:23;2.27;;;1.10;;
8895;SDS011;4484;48.928;10.066;2023-03-26T08:34:51;4.37;;;1.20;;
8895;SDS011;4484;48.928;10.066;2023-03-26T08:37:18;3.87;;;1.30;;
8895;SDS011;4484;48.928;10.066;2023-03-26T08:39:45;8.63;;;1.80;;
8895;SDS011;4484;48.928;10.066;2023-03-26T08:53:27;8.97;;;2.50;;
8895;SDS011;4484;48.928;10.066;2023-03-26T08:56:26;8.80;;;2.30;;
8895;SDS011;4484;48.928;10.066;2023-03-26T09:02:08;6.30;;;2.07;;
8895;SDS011;4484;48.928;10.066;2023-03-26T09:18:51;6.20;;;1.60;;
8895;SDS011;4484;48.928;10.066;2023-03-26T09:30:10;6.83;;;1.93;;
8895;SDS011;4484;48.928;10.066;2023-03-26T09:35:54;4.43;;;1.30;;
8895;SDS011;4484;48.928;10.066;2023-03-26T09:38:44;4.50;;;2.03;;
8895;SDS011;4484;48.928;10.066;2023-03-26T09:41:16;3.17;;;1.50;;
8895;SDS011;4484;48.928;10.066;2023-03-26T09:43:52;4.47;;;1.50;;
8895;SDS011;4484;48.928;10.066;2023-03-26T09:51:50;2.67;;;1.20;;
8895;SDS011;4484;48.928;10.066;2023-03-26T10:00:21;2.97;;;1.10;;
8895;SDS011;4484;48.928;10.066;2023-03-26T10:05:43;3.10;;;1.17;;
8895;SDS011;4484;48.928;10.066;2023-03-26T10:10:56;4.10;;;1.90;;
8895;SDS011;4484;48.928;10.066;2023-03-26T10:19:40;3.27;;;1.03;;
8895;SDS011;4484;48.928;10.066;2023-03-26T10:27:52;4.60;;;1.87;;
8895;SDS011;4484;48.928;10.066;2023-03-26T10:33:41;7.03;;;1.40;;
8895;SDS011;4484;48.928;10.066;2023-03-26T10:37:13;5.40;;;3.00;;
8895;SDS011;4484;48.928;10.066;2023-03-26T10:40:06;3.67;;;2.20;;
8895;SDS011;4484;48.928;10.066;2023-03-26T10:54:07;5.23;;;1.30;;
8895;SDS011;4484;48.928;10.066;2023-03-26T10:56:56;3.37;;;1.20;;
8895;SDS011;4484;48.928;10.066;2023-03-26T10:59:25;3.80;;;1.17;;
8895;SDS011;4484;48.928;10.066;2023-03-26T11:04:47;2.03;;;1.00;;
8895;SDS011;4484;48.928;10.066;2023-03-26T11:10:19;2.97;;;0.80;;
8895;SDS011;4484;48.928;10.066;2023-03-26T11:26:57;1.07;;;0.90;;
8895;SDS011;4484;48.928;10.066;2023-03-26T11:32:40;4.90;;;1.63;;
8895;SDS011;4484;48.928;10.066;2023-03-26T11:35:20;4.87;;;1.50;;
8895;SDS011;4484;48.928;10.066;2023-03-26T11:38:54;1.90;;;1.00;;
8895;SDS011;4484;48.928;10.066;2023-03-26T11:41:09;1.87;;;0.93;;
8895;SDS011;4484;48.928;10.066;2023-03-26T11:46:41;2.80;;;1.90;;
8895;SDS011;4484;48.928;10.066;2023-03-26T11:49:11;6.73;;;2.30;;
8895;SDS011;4484;48.928;10.066;2023-03-26T11:51:42;2.70;;;1.10;;
8895;SDS011;4484;48.928;10.066;2023-03-26T11:54:12;1.90;;;1.10;;
8895;SDS011;4484;48.928;10.066;2023-03-26T12:02:15;2.50;;;1.00;;
8895;SDS011;4484;48.928;10.066;2023-03-26T12:04:51;2.40;;;0.87;;
8895;SDS011;4484;48.928;10.066;2023-03-26T12:07:32;1.07;;;0.80;;
8895;SDS011;4484;48.928;10.066;2023-03-26T12:10:04;2.17;;;1.00;;
8895;SDS011;4484;48.928;10.066;2023-03-26T12:12:46;2.13;;;0.70;;
8895;SDS011;4484;48.928;10.066;2023-03-26T12:15:14;3.00;;;0.97;;
8895;SDS011;4484;48.928;10.066;2023-03-26T12:17:45;4.20;;;1.03;;
8895;SDS011;4484;48.928;10.066;2023-03-26T12:22:54;1.90;;;0.87;;
8895;SDS011;4484;48.928;10.066;2023-03-26T12:25:31;2.53;;;0.50;;
8895;SDS011;4484;48.928;10.066;2023-03-26T12:28:01;1.30;;;0.50;;
8895;SDS011;4484;48.928;10.066;2023-03-26T12:30:39;1.40;;;0.63;;
8895;SDS011;4484;48.928;10.066;2023-03-26T12:33:27;1.83;;;0.60;;
8895;SDS011;4484;48.928;10.066;2023-03-26T12:36:17;1.60;;;0.70;;
8895;SDS011;4484;48.928;10.066;2023-03-26T12:38:56;3.70;;;0.70;;
8895;SDS011;4484;48.928;10.066;2023-03-26T12:41:43;1.10;;;0.47;;
8895;SDS011;4484;48.928;10.066;2023-03-26T12:44:44;1.87;;;0.70;;
8895;SDS011;4484;48.928;10.066;2023-03-26T12:47:29;3.60;;;0.60;;
8895;SDS011;4484;48.928;10.066;2023-03-26T12:50:17;1.07;;;0.60;;
8895;SDS011;4484;48.928;10.066;2023-03-26T13:01:46;1.03;;;0.40;;
8895;SDS011;4484;48.928;10.066;2023-03-26T13:04:32;1.47;;;0.77;;
8895;SDS011;4484;48.928;10.066;2023-03-26T13:07:38;2.07;;;1.67;;
8895;SDS011;4484;48.928;10.066;2023-03-26T13:15:41;0.70;;;0.70;;
8895;SDS011;4484;48.928;10.066;2023-03-26T13:18:17;0.97;;;0.67;;
8895;SDS011;4484;48.928;10.066;2023-03-26T13:20:47;2.10;;;0.63;;
8895;SDS011;4484;48.928;10.066;2023-03-26T13:23:36;1.13;;;0.90;;
8895;SDS011;4484;48.928;10.066;2023-03-26T13:26:14;0.67;;;0.40;;
8895;SDS011;4484;48.928;10.066;2023-03-26T13:37:59;0.40;;;0.40;;
8895;SDS011;4484;48.928;10.066;2023-03-26T13:46:50;1.03;;;0.50;;
8895;SDS011;4484;48.928;10.066;2023-03-26T13:54:39;1.50;;;0.50;;
8895;SDS011;4484;48.928;10.066;2023-03-26T13:57:23;1.70;;;1.00;;
8895;SDS011;4484;48.928;10.066;2023-03-26T14:02:38;0.90;;;0.50;;
8895;SDS011;4484;48.928;10.066;2023-03-26T14:05:18;1.07;;;0.60;;
8895;SDS011;4484;48.928;10.066;2023-03-26T14:08:10;1.47;;;0.53;;
8895;SDS011;4484;48.928;10.066;2023-03-26T14:11:03;1.40;;;0.60;;
8895;SDS011;4484;48.928;10.066;2023-03-26T14:13:38;2.43;;;0.80;;
8895;SDS011;4484;48.928;10.066;2023-03-26T14:16:16;0.83;;;0.50;;
8895;SDS011;4484;48.928;10.066;2023-03-26T14:19:39;1.77;;;0.93;;
8895;SDS011;4484;48.928;10.066;2023-03-26T14:27:22;0.90;;;0.60;;
8895;SDS011;4484;48.928;10.066;2023-03-26T14:33:16;1.10;;;0.57;;
8895;SDS011;4484;48.928;10.066;2023-03-26T14:41:49;2.67;;;0.70;;
8895;SDS011;4484;48.928;10.066;2023-03-26T14:47:14;1.03;;;0.70;;
8895;SDS011;4484;48.928;10.066;2023-03-26T15:00:36;2.33;;;0.90;;
8895;SDS011;4484;48.928;10.066;2023-03-26T15:08:56;1.37;;;0.70;;
8895;SDS011;4484;48.928;10.066;2023-03-26T15:26:03;4.33;;;0.93;;
8895;SDS011;4484;48.928;10.066;2023-03-26T15:29:01;2.97;;;0.90;;
8895;SDS011;4484;48.928;10.066;2023-03-26T15:39:56;2.03;;;1.27;;
8895;SDS011;4484;48.928;10.066;2023-03-26T15:42:40;7.10;;;1.00;;
8895;SDS011;4484;48.928;10.066;2023-03-26T15:45:16;3.00;;;1.80;;
8895;SDS011;4484;48.928;10.066;2023-03-26T15:50:21;3.00;;;0.77;;
8895;SDS011;4484;48.928;10.066;2023-03-26T15:53:03;3.17;;;1.20;;
8895;SDS011;4484;48.928;10.066;2023-03-26T15:58:24;1.67;;;0.40;;
8895;SDS011;4484;48.928;10.066;2023-03-26T16:06:36;1.53;;;0.60;;
8895;SDS011;4484;48.928;10.066;2023-03-26T16:14:46;2.03;;;0.50;;
8895;SDS011;4484;48.928;10.066;2023-03-26T16:17:31;0.50;;;0.50;;
8895;SDS011;4484;48.928;10.066;2023-03-26T16:20:44;0.57;;;0.50;;
8895;SDS011;4484;48.928;10.066;2023-03-26T16:23:57;0.60;;;0.50;;
8895;SDS011;4484;48.928;10.066;2023-03-26T16:26:39;1.83;;;0.60;;
8895;SDS011;4484;48.928;10.066;2023-03-26T16:29:23;2.37;;;0.80;;
8895;SDS011;4484;48.928;10.066;2023-03-26T16:34:37;3.13;;;1.27;;
8895;SDS011;4484;48.928;10.066;2023-03-26T16:54:10;2.63;;;1.23;;
8895;SDS011;4484;48.928;10.066;2023-03-26T17:02:34;1.57;;;1.10;;
8895;SDS011;4484;48.928;10.066;2023-03-26T17:08:16;2.03;;;1.07;;
8895;SDS011;4484;48.928;10.066;2023-03-26T17:11:03;2.50;;;1.37;;
8895;SDS011;4484;48.928;10.066;2023-03-26T17:16:37;1.73;;;0.70;;
8895;SDS011;4484;48.928;10.066;2023-03-26T17:33:05;0.50;;;0.40;;
8895;SDS011;4484;48.928;10.066;2023-03-26T17:54:26;0.90;;;0.60;;
8895;SDS011;4484;48.928;10.066;2023-03-26T18:00:13;2.20;;;1.50;;
8895;SDS011;4484;48.928;10.066;2023-03-26T18:02:46;3.60;;;1.90;;
8895;SDS011;4484;48.928;10.066;2023-03-26T18:05:22;2.90;;;1.60;;
8895;SDS011;4484;48.928;10.066;2023-03-26T18:08:04;5.30;;;2.87;;
8895;SDS011;4484;48.928;10.066;2023-03-26T18:16:14;1.70;;;0.70;;
8895;SDS011;4484;48.928;10.066;2023-03-26T18:21:12;1.27;;;0.37;;
8895;SDS011;4484;48.928;10.066;2023-03-26T18:23:50;0.97;;;0.80;;
8895;SDS011;4484;48.928;10.066;2023-03-26T18:26:18;0.50;;;0.50;;
8895;SDS011;4484;48.928;10.066;2023-03-26T18:29:09;0.67;;;0.43;;
8895;SDS011;4484;48.928;10.066;2023-03-26T18:31:58;0.50;;;0.40;;
8895;SDS011;4484;48.928;10.066;2023-03-26T18:34:29;1.40;;;0.60;;
8895;SDS011;4484;48.928;10.066;2023-03-26T18:37:04;2.17;;;1.03;;
8895;SDS011;4484;48.928;10.066;2023-03-26T18:39:43;1.87;;;0.77;;
8895;SDS011;4484;48.928;10.066;2023-03-26T18:42:28;1.30;;;0.90;;
8895;SDS011;4484;48.928;10.066;2023-03-26T18:44:57;0.60;;;0.60;;
8895;SDS011;4484;48.928;10.066;2023-03-26T18:47:30;1.43;;;0.60;;
8895;SDS011;4484;48.928;10.066;2023-03-26T18:49:57;0.60;;;0.60;;
8895;SDS011;4484;48.928;10.066;2023-03-26T18:52:26;2.27;;;0.77;;
8895;SDS011;4484;48.928;10.066;2023-03-26T18:54:54;3.47;;;1.00;;
8895;SDS011;4484;48.928;10.066;2023-03-26T18:57:25;3.77;;;1.70;;
8895;SDS011;4484;48.928;10.066;2023-03-26T18:59:54;4.40;;;2.20;;
8895;SDS011;4484;48.928;10.066;2023-03-26T19:02:35;1.00;;;0.70;;
8895;SDS011;4484;48.928;10.066;2023-03-26T19:05:03;1.20;;;1.00;;
8895;SDS011;4484;48.928;10.066;2023-03-26T19:07:31;1.50;;;1.10;;
8895;SDS011;4484;48.928;10.066;2023-03-26T19:10:00;1.50;;;1.30;;
8895;SDS011;4484;48.928;10.066;2023-03-26T19:12:28;1.33;;;1.10;;
8895;SDS011;4484;48.928;10.066;2023-03-26T19:17:46;1.30;;;1.10;;
8895;SDS011;4484;48.928;10.066;2023-03-26T19:20:20;0.83;;;0.60;;
8895;SDS011;4484;48.928;10.066;2023-03-26T19:22:49;1.13;;;0.57;;
8895;SDS011;4484;48.928;10.066;2023-03-26T19:25:19;2.33;;;0.80;;
8895;SDS011;4484;48.928;10.066;2023-03-26T19:27:51;1.00;;;0.70;;
8895;SDS011;4484;48.928;10.066;2023-03-26T19:33:02;1.53;;;0.50;;
8895;SDS011;4484;48.928;10.066;2023-03-26T19:35:39;0.73;;;0.50;;
8895;SDS011;4484;48.928;10.066;2023-03-26T19:40:49;1.20;;;0.70;;
8895;SDS011;4484;48.928;10.066;2023-03-26T19:43:21;0.93;;;0.60;;
8895;SDS011;4484;48.928;10.066;2023-03-26T19:45:50;0.80;;;0.80;;
8895;SDS011;4484;48.928;10.066;2023-03-26T19:48:27;0.83;;;0.40;;
8895;SDS011;4484;48.928;10.066;2023-03-26T19:51:19;2.03;;;0.73;;
8895;SDS011;4484;48.928;10.066;2023-03-26T19:53:57;2.40;;;0.40;;
8895;SDS011;4484;48.928;10.066;2023-03-26T19:56:26;1.17;;;0.80;;
8895;SDS011;4484;48.928;10.066;2023-03-26T19:58:54;2.43;;;1.00;;
8895;SDS011;4484;48.928;10.066;2023-03-26T20:01:23;2.00;;;1.03;;
8895;SDS011;4484;48.928;10.066;2023-03-26T20:03:55;2.77;;;1.93;;
8895;SDS011;4484;48.928;10.066;2023-03-26T20:06:26;3.07;;;1.23;;
8895;SDS011;4484;48.928;10.066;2023-03-26T20:09:10;1.87;;;1.20;;
8895;SDS011;4484;48.928;10.066;2023-03-26T20:11:38;1.53;;;1.10;;
8895;SDS011;4484;48.928;10.066;2023-03-26T20:14:10;1.40;;;1.10;;
8895;SDS011;4484;48.928;10.066;2023-03-26T20:16:39;1.40;;;0.90;;
8895;SDS011;4484;48.928;10.066;2023-03-26T20:19:10;0.90;;;0.60;;
8895;SDS011;4484;48.928;10.066;2023-03-26T20:21:39;1.33;;;0.90;;
8895;SDS011;4484;48.928;10.066;2023-03-26T20:24:10;1.67;;;0.80;;
8895;SDS011;4484;48.928;10.066;2023-03-26T20:26:39;2.00;;;0.90;;
8895;SDS011;4484;48.928;10.066;2023-03-26T20:29:07;4.23;;;0.93;;
8895;SDS011;4484;48.928;10.066;2023-03-26T20:31:33;4.10;;;1.70;;
8895;SDS011;4484;48.928;10.066;2023-03-26T20:34:00;2.13;;;1.00;;
8895;SDS011;4484;48.928;10.066;2023-03-26T20:36:27;4.07;;;1.20;;
8895;SDS011;4484;48.928;10.066;2023-03-26T20:39:00;1.77;;;0.80;;
8895;SDS011;4484;48.928;10.066;2023-03-26T20:41:31;1.67;;;1.00;;
8895;SDS011;4484;48.928;10.066;2023-03-26T20:43:59;1.70;;;1.00;;
8895;SDS011;4484;48.928;10.066;2023-03-26T20:46:28;1.53;;;0.83;;
8895;SDS011;4484;48.928;10.066;2023-03-26T20:48:57;2.10;;;0.80;;
8895;SDS011;4484;48.928;10.066;2023-03-26T20:51:25;0.93;;;0.70;;
8895;SDS011;4484;48.928;10.066;2023-03-26T20:53:54;1.60;;;1.03;;
8895;SDS011;4484;48.928;10.066;2023-03-26T20:56:21;2.07;;;0.87;;
8895;SDS011;4484;48.928;10.066;2023-03-26T20:58:49;1.37;;;0.70;;
8895;SDS011;4484;48.928;10.066;2023-03-26T21:01:33;3.33;;;0.80;;
8895;SDS011;4484;48.928;10.066;2023-03-26T21:04:00;1.47;;;0.90;;
8895;SDS011;4484;48.928;10.066;2023-03-26T21:06:29;2.20;;;1.00;;
8895;SDS011;4484;48.928;10.066;2023-03-26T21:08:56;1.70;;;0.90;;
8895;SDS011;4484;48.928;10.066;2023-03-26T21:14:20;0.83;;;0.80;;
8895;SDS011;4484;48.928;10.066;2023-03-26T21:16:51;1.27;;;0.70;;
8895;SDS011;4484;48.928;10.066;2023-03-26T21:19:18;1.10;;;0.50;;
8895;SDS011;4484;48.928;10.066;2023-03-26T21:29:33;0.87;;;0.60;;
8895;SDS011;4484;48.928;10.066;2023-03-26T21:32:00;1.47;;;0.70;;
8895;SDS011;4484;48.928;10.066;2023-03-26T21:34:28;1.17;;;0.67;;
8895;SDS011;4484;48.928;10.066;2023-03-26T21:36:58;2.50;;;0.50;;
8895;SDS011;4484;48.928;10.066;2023-03-26T21:39:26;1.07;;;0.60;;
8895;SDS011;4484;48.928;10.066;2023-03-26T21:41:54;2.03;;;0.60;;
8895;SDS011;4484;48.928;10.066;2023-03-26T21:44:31;0.57;;;0.50;;
8895;SDS011;4484;48.928;10.066;2023-03-26T21:46:58;1.23;;;0.77;;
8895;SDS011;4484;48.928;10.066;2023-03-26T21:49:26;1.00;;;0.90;;
8895;SDS011;4484;48.928;10.066;2023-03-26T21:51:53;2.17;;;0.80;;
8895;SDS011;4484;48.928;10.066;2023-03-26T21:56:49;1.57;;;0.67;;
8895;SDS011;4484;48.928;10.066;2023-03-26T22:02:28;0.70;;;0.70;;
8895;SDS011;4484;48.928;10.066;2023-03-26T22:05:15;1.30;;;1.10;;
8895;SDS011;4484;48.928;10.066;2023-03-26T22:10:28;1.37;;;0.70;;
8895;SDS011;4484;48.928;10.066;2023-03-26T22:12:56;1.20;;;0.80;;
8895;SDS011;4484;48.928;10.066;2023-03-26T22:15:24;4.27;;;0.90;;
8895;SDS011;4484;48.928;10.066;2023-03-26T22:18:00;0.83;;;0.70;;
8895;SDS011;4484;48.928;10.066;2023-03-26T22:20:27;0.70;;;0.70;;